Time;durP1;ratioP1;P1;durP2;ratioP2;P2;SDS_P1;SDS_P2;PMS_P1;PMS_P2;Temp;Humidity;BMP_temperature;BMP_pressure;BME280_temperature;BME280_humidity;BME280_pressure;Samples;Min_cycle;Max_cycle;Signal;HPM_P1;HPM_P2
2022/08/31 00:06:19;;;;;;;48.90;27.02;;;;;;;19.17;69.16;99696.87;1711935;83;21145;-72
2022/08/31 00:08:46;;;;;;;38.40;25.60;;;;;;;19.13;69.49;99697.23;1700847;83;21594;-73
2022/08/31 00:11:13;;;;;;;41.83;26.20;;;;;;;19.09;69.75;99697.58;1692341;83;20994;-71
2022/08/31 00:13:40;;;;;;;45.98;28.17;;;;;;;19.06;70.00;99695.47;1694357;83;21086;-71
2022/08/31 00:16:09;;;;;;;39.83;26.25;;;;;;;19.04;70.30;99694.98;1692364;84;21594;-73
2022/08/31 00:18:36;;;;;;;42.78;25.00;;;;;;;19.03;70.58;99698.27;1674267;84;21550;-73
2022/08/31 00:21:03;;;;;;;38.02;23.57;;;;;;;19.05;70.81;99701.48;1663838;86;21333;-76
2022/08/31 00:23:30;;;;;;;33.18;22.75;;;;;;;19.06;70.98;99703.09;1710483;83;21031;-78
2022/08/31 00:25:57;;;;;;;32.63;21.85;;;;;;;19.06;71.09;99699.56;1706907;83;21618;-76
2022/08/31 00:28:23;;;;;;;32.35;21.33;;;;;;;19.07;71.23;99693.00;1689443;84;21070;-77
2022/08/31 00:30:50;;;;;;;30.75;22.17;;;;;;;19.06;71.36;99689.46;1690982;84;21058;-76
2022/08/31 00:33:17;;;;;;;31.17;20.55;;;;;;;19.07;71.49;99690.27;1660356;85;21169;-78
2022/08/31 00:35:44;;;;;;;30.82;20.10;;;;;;;19.05;71.60;99696.02;1672184;84;20955;-76
2022/08/31 00:38:11;;;;;;;30.02;19.20;;;;;;;19.04;71.74;99693.63;1672709;84;21643;-79
2022/08/31 00:40:41;;;;;;;23.18;17.35;;;;;;;19.00;72.31;99694.77;1678381;85;21095;-74
2022/08/31 00:43:08;;;;;;;28.80;18.95;;;;;;;18.88;73.01;99693.12;1676008;84;21031;-70
2022/08/31 00:45:36;;;;;;;24.18;17.27;;;;;;;18.87;73.06;99698.33;1734753;81;21039;-71
2022/08/31 00:48:03;;;;;;;25.40;16.93;;;;;;;18.95;72.57;99693.51;1727602;81;20944;-70
2022/08/31 00:50:30;;;;;;;23.32;16.12;;;;;;;19.01;72.40;99693.66;1708891;81;21034;-71
2022/08/31 00:52:59;;;;;;;26.10;17.40;;;;;;;19.03;72.26;99690.09;1733447;81;21098;-70
2022/08/31 00:55:32;;;;;;;21.80;17.52;;;;;;;19.05;72.15;99692.48;1708642;82;21046;-70
2022/08/31 00:58:01;;;;;;;;;;;;;;;19.04;72.10;99691.67;1742710;81;21850;-69
2022/08/31 01:00:29;;;;;;;29.82;16.12;;;;;;;19.02;72.07;99693.11;1730018;82;20145;-69
2022/08/31 01:02:57;;;;;;;22.98;14.65;;;;;;;18.99;72.12;99691.78;1729774;82;21095;-70
2022/08/31 01:05:23;;;;;;;18.32;13.75;;;;;;;18.95;72.18;99692.70;1709121;83;21003;-71
2022/08/31 01:07:50;;;;;;;20.15;13.03;;;;;;;18.93;72.31;99700.39;1732688;81;21030;-70
2022/08/31 01:10:19;;;;;;;15.68;10.98;;;;;;;18.90;72.40;99698.25;1752876;81;21763;-70
2022/08/31 01:12:46;;;;;;;16.87;11.43;;;;;;;18.90;72.53;99702.34;1732915;81;20967;-74
2022/08/31 01:15:13;;;;;;;20.65;11.10;;;;;;;18.90;72.54;99699.62;1730113;83;21011;-73
2022/08/31 01:17:40;;;;;;;19.55;10.70;;;;;;;18.91;72.56;99695.23;1729851;83;20936;-74
2022/08/31 01:20:31;;;;;;;17.67;10.13;;;;;;;18.94;72.50;99697.92;1730036;82;21031;-71
2022/08/31 01:23:22;;;;;;;15.60;10.00;;;;;;;18.94;72.48;99696.01;1713312;81;21951;-72
2022/08/31 01:25:50;;;;;;;13.70;9.75;;;;;;;18.93;72.46;99701.75;1705205;82;21067;-71
2022/08/31 01:28:17;;;;;;;15.08;9.93;;;;;;;18.90;72.51;99703.16;1708676;83;21655;-73
2022/08/31 01:30:46;;;;;;;11.75;8.70;;;;;;;18.88;72.65;99701.30;1705878;84;21577;-72
2022/08/31 01:33:13;;;;;;;12.70;8.90;;;;;;;18.83;72.80;99698.69;1683599;84;21571;-72
2022/08/31 01:35:41;;;;;;;12.45;9.05;;;;;;;18.80;72.93;99697.13;1705424;84;21224;-72
2022/08/31 01:38:09;;;;;;;12.53;8.55;;;;;;;18.75;73.13;99699.41;1705354;84;20999;-73
2022/08/31 01:40:47;;;;;;;10.80;8.40;;;;;;;18.71;73.29;99700.54;1705437;83;21110;-73
2022/08/31 01:43:14;;;;;;;13.10;7.62;;;;;;;18.70;73.48;99703.59;1693242;82;20999;-71
2022/08/31 01:45:41;;;;;;;9.20;6.87;;;;;;;18.67;73.55;99699.53;1721402;82;21108;-71
2022/08/31 01:48:07;;;;;;;9.68;7.50;;;;;;;18.67;73.65;99698.73;1722725;82;21176;-71
2022/08/31 01:50:35;;;;;;;8.15;5.83;;;;;;;18.63;73.72;99689.00;1709398;83;20983;-71
2022/08/31 01:53:02;;;;;;;8.68;6.95;;;;;;;18.63;73.82;99694.45;1712624;82;21100;-70
2022/08/31 01:55:29;;;;;;;8.65;7.45;;;;;;;18.61;73.91;99693.12;1676364;85;21074;-70
2022/08/31 01:57:58;;;;;;;9.10;6.22;;;;;;;18.57;74.08;99692.92;1679832;83;21074;-73
2022/08/31 02:00:30;;;;;;;9.48;7.53;;;;;;;18.54;74.21;99685.37;1654774;84;21144;-69
2022/08/31 02:02:59;;;;;;;11.57;7.65;;;;;;;18.52;74.41;99688.09;1705176;84;21029;-70
2022/08/31 02:05:27;;;;;;;10.25;7.53;;;;;;;18.49;74.56;99686.80;1705302;84;21132;-71
2022/08/31 02:07:55;;;;;;;10.78;6.50;;;;;;;18.47;74.69;99685.47;1703879;82;21038;-69
2022/08/31 02:10:23;;;;;;;11.15;7.28;;;;;;;18.48;74.84;99683.81;1721517;82;21046;-69
2022/08/31 02:12:50;;;;;;;9.93;6.25;;;;;;;18.51;74.88;99684.56;1730112;83;21028;-68
2022/08/31 02:15:17;;;;;;;9.40;6.22;;;;;;;18.53;74.90;99689.20;1697123;84;21061;-70
2022/08/31 02:17:46;;;;;;;7.78;6.72;;;;;;;18.54;74.98;99679.11;1690547;84;21484;-75
2022/08/31 02:20:13;;;;;;;9.88;6.95;;;;;;;18.53;75.05;99675.58;1676906;85;21054;-70
2022/08/31 02:22:39;;;;;;;9.30;6.62;;;;;;;18.52;75.09;99678.01;1691706;84;21085;-73
2022/08/31 02:25:07;;;;;;;7.60;5.72;;;;;;;18.50;75.11;99677.52;1734089;81;21118;-75
2022/08/31 02:27:35;;;;;;;8.73;6.50;;;;;;;18.48;75.02;99672.11;1719732;82;21043;-74
2022/08/31 02:30:07;;;;;;;16.07;6.87;;;;;;;18.44;74.99;99675.19;1727755;81;21011;-75
2022/08/31 02:32:34;;;;;;;9.58;6.90;;;;;;;18.41;74.86;99674.44;1679650;84;20988;-75
2022/08/31 02:35:01;;;;;;;7.75;5.85;;;;;;;18.37;74.86;99676.16;1729657;83;21626;-75
2022/08/31 02:37:27;;;;;;;10.20;7.42;;;;;;;18.34;74.92;99676.19;1729654;83;21281;-77
2022/08/31 02:39:55;;;;;;;13.32;7.03;;;;;;;18.32;75.04;99685.78;1729710;82;21552;-76
2022/08/31 02:42:22;;;;;;;8.03;6.25;;;;;;;18.28;75.22;99676.83;1735734;82;21079;-76
2022/08/31 02:44:49;;;;;;;8.38;7.55;;;;;;;18.28;75.27;99671.94;1715740;83;21013;-75
2022/08/31 02:47:17;;;;;;;9.55;6.75;;;;;;;18.26;75.29;99679.62;1713314;82;21610;-75
2022/08/31 02:49:45;;;;;;;10.80;7.15;;;;;;;18.22;75.25;99680.75;1713040;81;21318;-74
2022/08/31 02:52:13;;;;;;;11.18;6.08;;;;;;;18.19;75.29;99684.63;1715868;83;21065;-74
2022/08/31 02:54:40;;;;;;;12.93;7.20;;;;;;;18.17;75.38;99694.48;1715816;83;21075;-74
2022/08/31 02:57:07;;;;;;;12.33;6.40;;;;;;;18.15;75.46;99685.80;1715935;83;21032;-75
2022/08/31 02:59:34;;;;;;;8.45;7.08;;;;;;;18.14;75.46;99687.45;1715860;83;21078;-76
2022/08/31 03:02:00;;;;;;;10.15;6.85;;;;;;;18.12;75.50;99680.96;1697559;83;21122;-76
2022/08/31 03:04:28;;;;;;;9.05;7.17;;;;;;;18.11;75.62;99679.34;1712577;82;20922;-77
2022/08/31 03:06:55;;;;;;;12.40;7.62;;;;;;;18.08;75.78;99674.47;1706455;84;20985;-76
2022/08/31 03:09:21;;;;;;;8.68;6.97;;;;;;;18.05;75.93;99678.36;1706639;84;21052;-76
2022/08/31 03:11:48;;;;;;;8.55;6.42;;;;;;;18.03;76.27;99680.59;1706405;84;21096;-76
2022/08/31 03:14:15;;;;;;;7.92;6.30;;;;;;;18.03;76.54;99676.50;1750773;81;21147;-74
2022/08/31 03:16:42;;;;;;;10.18;5.97;;;;;;;18.04;76.48;99676.73;1748786;81;21079;-74
2022/08/31 03:19:09;;;;;;;15.90;6.58;;;;;;;18.05;76.55;99675.63;1743113;81;21052;-75
2022/08/31 03:21:37;;;;;;;9.38;6.87;;;;;;;18.07;76.41;99676.16;1743274;82;20999;-75
2022/08/31 03:24:04;;;;;;;11.78;8.45;;;;;;;18.08;76.36;99677.78;1737778;81;21091;-76
2022/08/31 03:26:31;;;;;;;14.73;9.10;;;;;;;18.09;76.21;99672.02;1718964;82;21246;-77
2022/08/31 03:28:57;;;;;;;16.35;8.30;;;;;;;18.08;76.05;99673.70;1753738;81;21532;-77
2022/08/31 03:31:43;;;;;;;12.98;8.63;;;;;;;18.04;76.04;99677.55;1766052;81;20990;-75
2022/08/31 03:34:09;;;;;;;12.82;7.67;;;;;;;17.97;76.23;99682.59;1765955;81;21490;-77
2022/08/31 03:36:36;;;;;;;10.15;7.28;;;;;;;17.93;76.33;99684.30;1765858;80;21185;-76
2022/08/31 03:39:03;;;;;;;13.32;8.23;;;;;;;17.90;76.39;99684.05;1748396;81;21154;-78
2022/08/31 03:41:30;;;;;;;9.00;7.47;;;;;;;17.86;76.51;99675.14;1738167;81;21007;-77
2022/08/31 03:44:00;;;;;;;26.80;9.60;;;;;;;17.86;76.64;99680.58;1732248;82;21035;-75
2022/08/31 03:46:25;;;;;;;12.37;7.58;;;;;;;17.86;76.69;99683.86;1721122;82;21036;-74
2022/08/31 03:48:53;;;;;;;11.00;7.87;;;;;;;17.86;76.69;99692.83;1728930;82;21191;-74
2022/08/31 03:51:20;;;;;;;11.43;9.05;;;;;;;17.85;76.63;99684.41;1712615;82;21012;-78
2022/08/31 03:53:47;;;;;;;15.83;8.45;;;;;;;17.83;76.63;99681.73;1693151;83;21571;-81
2022/08/31 03:56:15;;;;;;;19.00;10.30;;;;;;;17.79;76.73;99688.30;1686694;84;21063;-79
2022/08/31 03:58:42;;;;;;;15.03;9.00;;;;;;;17.73;76.92;99689.52;1732988;82;21014;-78
2022/08/31 04:01:11;;;;;;;13.68;8.35;;;;;;;17.68;77.16;99691.51;1737414;82;21067;-79
2022/08/31 04:03:55;;;;;;;12.30;7.55;;;;;;;17.65;77.39;99690.75;1722832;82;21751;-77
2022/08/31 04:06:32;;;;;;;20.95;10.65;;;;;;;17.64;77.71;99680.97;1731057;82;20979;-75
2022/08/31 04:09:20;;;;;;;12.85;8.23;;;;;;;17.66;77.87;99689.07;1657304;83;21704;-76
2022/08/31 04:11:57;;;;;;;17.20;8.85;;;;;;;17.71;77.99;99684.10;1561778;90;21110;-76
2022/08/31 04:14:38;;;;;;;11.20;8.15;;;;;;;17.74;77.89;99687.05;1612326;84;21306;-77
2022/08/31 04:17:23;;;;;;;12.25;8.25;;;;;;;17.75;77.88;99689.20;1695470;84;21822;-75
2022/08/31 04:19:51;;;;;;;12.00;7.67;;;;;;;17.75;77.97;99687.84;1694650;84;21062;-78
2022/08/31 04:22:22;;;;;;;9.93;7.97;;;;;;;17.75;77.95;99682.39;1694937;84;21364;-77
2022/08/31 04:25:01;;;;;;;13.22;8.38;;;;;;;17.75;77.99;99687.29;1671898;84;40140;-78
2022/08/31 04:27:28;;;;;;;11.30;8.98;;;;;;;17.76;78.06;99695.71;1705496;83;21539;-77
2022/08/31 04:29:55;;;;;;;13.65;7.90;;;;;;;17.78;78.00;99696.78;1704341;83;22108;-76
2022/08/31 04:32:22;;;;;;;17.23;9.03;;;;;;;17.80;77.91;99693.20;1695427;84;20931;-78
2022/08/31 04:34:48;;;;;;;13.40;8.78;;;;;;;17.82;77.82;99689.64;1695438;84;20975;-79
2022/08/31 04:37:16;;;;;;;15.10;8.73;;;;;;;17.82;77.84;99697.80;1695443;84;21603;-78
2022/08/31 04:39:43;;;;;;;14.15;8.95;;;;;;;17.82;77.83;99701.34;1695218;84;21077;-78
2022/08/31 04:42:11;;;;;;;15.03;9.85;;;;;;;17.83;77.85;99701.59;1702947;82;21183;-79
2022/08/31 04:44:38;;;;;;;13.10;7.85;;;;;;;17.83;77.95;99704.87;1702059;83;21015;-80
2022/08/31 04:47:05;;;;;;;9.60;7.50;;;;;;;17.83;78.05;99695.34;1691657;83;21504;-79
2022/08/31 04:49:32;;;;;;;13.05;8.38;;;;;;;17.87;78.13;99699.08;1674602;84;21091;-80
2022/08/31 04:51:59;;;;;;;13.78;8.93;;;;;;;17.92;78.12;99705.80;1692508;84;21032;-77
2022/08/31 04:54:26;;;;;;;12.90;8.43;;;;;;;17.98;78.11;99698.36;1692354;82;21240;-77
2022/08/31 04:56:53;;;;;;;10.28;7.53;;;;;;;18.04;78.04;99706.13;1692579;84;21119;-77
2022/08/31 04:59:24;;;;;;;16.73;8.55;;;;;;;18.10;77.93;99704.94;1691494;83;21005;-78
2022/08/31 05:01:52;;;;;;;14.78;8.93;;;;;;;18.14;77.79;99696.97;1689517;83;21079;-77
2022/08/31 05:04:24;;;;;;;17.40;8.58;;;;;;;18.18;77.76;99703.43;1669952;84;21018;-75
2022/08/31 05:06:51;;;;;;;12.37;8.13;;;;;;;18.21;77.76;99703.66;1692115;84;21372;-77
2022/08/31 05:09:21;;;;;;;11.33;7.87;;;;;;;18.26;77.66;99700.84;1702731;83;20901;-76
2022/08/31 05:11:50;;;;;;;17.35;9.15;;;;;;;18.30;77.60;99697.77;1703674;83;21770;-76
2022/08/31 05:14:20;;;;;;;28.85;10.40;;;;;;;18.38;77.52;99698.17;1692031;83;21067;-76
2022/08/31 05:16:48;;;;;;;12.58;7.97;;;;;;;18.47;77.23;99705.89;1662644;84;21092;-82
2022/08/31 05:19:16;;;;;;;11.12;7.92;;;;;;;18.54;77.01;99707.16;1671161;84;21093;-74
2022/08/31 05:21:42;;;;;;;9.25;7.12;;;;;;;18.61;76.73;99712.19;1681001;83;21022;-75
2022/08/31 05:24:16;;;;;;;12.43;8.20;;;;;;;18.66;76.48;99709.37;1686825;83;21027;-74
2022/08/31 05:26:51;;;;;;;9.30;7.03;;;;;;;18.70;76.33;99704.37;1695182;83;21075;-81
2022/08/31 05:29:20;;;;;;;9.30;6.60;;;;;;;18.74;76.10;99705.95;1710710;83;21097;-76
2022/08/31 05:31:48;;;;;;;12.30;7.42;;;;;;;18.79;75.95;99705.86;1713356;83;21189;-75
2022/08/31 05:34:16;;;;;;;11.45;6.75;;;;;;;18.85;75.83;99708.70;1711960;83;21031;-77
2022/08/31 05:36:44;;;;;;;10.43;7.87;;;;;;;18.92;75.63;99710.48;1711671;83;21067;-77
2022/08/31 05:39:12;;;;;;;6.78;5.80;;;;;;;19.02;75.34;99712.19;1711640;83;21566;-78
2022/08/31 05:41:40;;;;;;;11.83;8.15;;;;;;;19.08;75.05;99709.62;1714503;82;21052;-76
2022/08/31 05:44:07;;;;;;;17.02;7.80;;;;;;;19.12;74.77;99711.42;1718215;82;21065;-75
2022/08/31 05:46:35;;;;;;;16.37;7.47;;;;;;;19.17;74.61;99710.51;1709448;82;21026;-77
2022/08/31 05:49:02;;;;;;;10.80;8.58;;;;;;;19.23;74.55;99711.20;1714782;83;20989;-77
2022/08/31 05:51:30;;;;;;;10.50;7.00;;;;;;;19.27;74.28;99703.47;1731237;82;21007;-76
2022/08/31 05:54:01;;;;;;;10.60;7.85;;;;;;;19.33;74.09;99704.95;1724550;82;22155;-76
2022/08/31 05:56:28;;;;;;;8.68;7.75;;;;;;;19.38;73.91;99704.02;1715689;83;21788;-76
2022/08/31 05:58:55;;;;;;;7.22;6.45;;;;;;;19.45;73.76;99709.91;1734815;82;21043;-76
2022/08/31 06:01:29;;;;;;;9.10;6.55;;;;;;;19.51;73.48;99710.86;1720852;82;21069;-76
2022/08/31 06:04:04;;;;;;;7.87;6.20;;;;;;;19.58;73.18;99711.22;1736900;80;21195;-78
2022/08/31 06:06:30;;;;;;;7.17;5.70;;;;;;;19.68;72.83;99714.83;1715502;83;21076;-78
2022/08/31 06:08:57;;;;;;;14.33;6.37;;;;;;;19.75;72.47;99720.12;1735916;82;21626;-77
2022/08/31 06:11:29;;;;;;;9.20;5.67;;;;;;;19.80;72.15;99713.17;1736450;81;20982;-77
2022/08/31 06:13:58;;;;;;;14.33;6.33;;;;;;;19.86;71.94;99716.00;1735279;82;21126;-75
2022/08/31 06:16:25;;;;;;;8.05;5.28;;;;;;;19.92;71.72;99708.50;1715911;83;21562;-76
2022/08/31 06:18:54;;;;;;;8.38;4.72;;;;;;;19.97;71.67;99709.74;1718900;82;21045;-76
2022/08/31 06:21:25;;;;;;;9.03;5.58;;;;;;;20.02;71.48;99711.79;1735784;82;21059;-77
2022/08/31 06:23:53;;;;;;;12.55;7.28;;;;;;;20.06;71.08;99705.69;1735725;81;21511;-78
2022/08/31 06:26:22;;;;;;;6.75;5.22;;;;;;;20.10;70.96;99709.41;1739338;81;21491;-77
2022/08/31 06:28:52;;;;;;;6.40;4.65;;;;;;;20.13;70.95;99715.08;1741526;81;21035;-77
2022/08/31 06:31:28;;;;;;;6.53;4.30;;;;;;;20.19;70.85;99711.66;1736829;82;21481;-77
2022/08/31 06:33:55;;;;;;;4.90;4.33;;;;;;;20.23;70.57;99710.72;1732513;81;21932;-77
2022/08/31 06:36:41;;;;;;;6.72;3.98;;;;;;;20.32;70.46;99713.52;1735660;82;21149;-77
2022/08/31 06:39:22;;;;;;;5.67;3.55;;;;;;;20.42;70.05;99720.09;1643265;84;21059;-77
2022/08/31 06:41:56;;;;;;;6.03;4.53;;;;;;;20.50;69.56;99719.87;1716367;82;21053;-78
2022/08/31 06:44:25;;;;;;;4.00;3.62;;;;;;;20.55;69.22;99721.91;1734757;82;21462;-78
2022/08/31 06:46:56;;;;;;;4.55;2.92;;;;;;;20.60;68.80;99727.80;1734103;81;21193;-78
2022/08/31 06:49:25;;;;;;;5.92;2.98;;;;;;;20.62;68.43;99727.74;1737132;81;21016;-79
2022/08/31 06:51:52;;;;;;;5.70;2.92;;;;;;;20.64;68.42;99730.14;1729839;81;20947;-76
2022/08/31 06:54:18;;;;;;;11.08;4.17;;;;;;;20.65;68.30;99732.56;1731234;82;21468;-77
2022/08/31 06:57:04;;;;;;;4.28;3.33;;;;;;;20.70;68.36;99725.59;1715606;83;20950;-75
2022/08/31 06:59:52;;;;;;;5.28;3.75;;;;;;;20.75;67.95;99726.81;1721521;82;21201;-74
2022/08/31 07:02:30;;;;;;;5.83;3.15;;;;;;;20.82;67.76;99727.15;1741882;80;21056;-75
2022/08/31 07:04:57;;;;;;;4.10;3.70;;;;;;;20.93;67.13;99729.04;1714411;82;21081;-74
2022/08/31 07:07:23;;;;;;;4.70;3.12;;;;;;;20.93;67.13;99729.04;1733779;82;21079;-76
2022/08/31 07:09:51;;;;;;;7.70;3.00;;;;;;;20.95;66.84;99721.89;1699252;82;21065;-76
2022/08/31 07:12:18;;;;;;;8.55;2.42;;;;;;;20.94;66.75;99713.44;1735011;82;21359;-77
2022/08/31 07:14:45;;;;;;;3.85;3.35;;;;;;;20.92;67.02;99727.42;1739563;82;20992;-77
2022/08/31 07:17:12;;;;;;;3.37;3.08;;;;;;;20.95;66.68;99721.89;1739793;82;20978;-75
2022/08/31 07:19:39;;;;;;;7.40;3.00;;;;;;;20.99;66.63;99726.41;1737299;82;21029;-78
2022/08/31 07:22:08;;;;;;;3.58;2.92;;;;;;;21.03;66.45;99719.18;1716133;82;21051;-76
2022/08/31 07:24:35;;;;;;;6.00;2.70;;;;;;;21.09;66.18;99717.91;1717632;83;21913;-78
2022/08/31 07:27:08;;;;;;;3.90;2.37;;;;;;;21.13;65.37;99714.81;1716358;83;21089;-77
2022/08/31 07:29:39;;;;;;;4.60;3.22;;;;;;;21.17;64.82;99728.65;1669355;85;21486;-78
2022/08/31 07:32:08;;;;;;;4.92;3.27;;;;;;;21.19;64.80;99734.06;1687173;84;20999;-79
2022/08/31 07:34:35;;;;;;;3.62;3.27;;;;;;;21.21;65.05;99730.42;1687583;83;21037;-83
2022/08/31 07:42:42;;;;;;;4.25;2.92;;;;;;;21.42;64.18;99719.68;1735589;81;21211;-83
2022/08/31 07:45:20;;;;;;;3.95;3.22;;;;;;;21.54;63.60;99727.23;1730028;83;21480;-82
2022/08/31 07:47:45;;;;;;;6.97;3.30;;;;;;;21.65;63.27;99724.43;1726080;81;21035;-82
2022/08/31 07:50:15;;;;;;;5.17;3.35;;;;;;;21.75;62.91;99730.39;1760130;81;21397;-82
2022/08/31 07:52:52;;;;;;;3.60;3.30;;;;;;;21.85;62.36;99727.89;1725315;81;20979;-83
2022/08/31 07:55:36;;;;;;;4.85;3.35;;;;;;;21.91;61.83;99723.87;1733254;81;21523;-81
2022/08/31 07:58:05;;;;;;;3.37;2.87;;;;;;;21.97;61.76;99723.14;1725333;82;21035;-83
2022/08/31 08:00:34;;;;;;;3.42;3.12;;;;;;;22.01;61.83;99736.45;1700499;84;20967;-81
2022/08/31 08:03:05;;;;;;;4.50;2.58;;;;;;;22.04;61.23;99717.98;1703888;82;21110;-82
2022/08/31 08:05:37;;;;;;;8.50;3.45;;;;;;;22.03;61.13;99715.81;1704265;82;21134;-75
2022/08/31 08:08:04;;;;;;;4.22;3.47;;;;;;;22.05;61.37;99721.78;1730030;82;21019;-76
2022/08/31 08:10:43;;;;;;;7.12;3.77;;;;;;;22.04;61.54;99733.86;1725491;81;21031;-78
2022/08/31 08:13:18;;;;;;;5.22;3.33;;;;;;;21.96;62.21;99722.92;1721215;83;21010;-79
2022/08/31 08:15:59;;;;;;;6.53;2.90;;;;;;;21.90;62.78;99730.47;1708946;83;21835;-80
2022/08/31 08:18:44;;;;;;;7.15;3.62;;;;;;;21.85;62.42;99719.67;1719308;83;21023;-79
2022/08/31 08:21:13;;;;;;;5.95;2.98;;;;;;;21.81;62.22;99711.87;1725738;81;21173;-77
2022/08/31 08:23:40;;;;;;;10.43;2.80;;;;;;;21.78;62.36;99707.02;1733302;81;21043;-75
2022/08/31 08:26:09;;;;;;;4.45;2.87;;;;;;;21.81;62.51;99705.59;1697722;84;21609;-76
2022/08/31 08:28:40;;;;;;;5.70;2.95;;;;;;;21.88;62.54;99694.94;1728684;82;21114;-77
2022/08/31 08:31:15;;;;;;;4.05;2.37;;;;;;;21.99;62.53;99702.53;1705458;83;20936;-75
2022/08/31 08:33:43;;;;;;;6.08;3.22;;;;;;;22.09;61.52;99707.67;1666896;84;21050;-76
2022/08/31 08:36:10;;;;;;;4.40;3.15;;;;;;;22.14;61.17;99697.91;1728598;81;20987;-75
2022/08/31 08:38:42;;;;;;;13.20;3.60;;;;;;;22.16;61.21;99698.37;1725821;81;21570;-76
2022/08/31 08:41:15;;;;;;;13.53;2.72;;;;;;;22.15;60.85;99715.16;1740373;81;21451;-79
2022/08/31 08:43:47;;;;;;;6.65;2.60;;;;;;;22.18;60.42;99703.53;1736909;81;21516;-80
2022/08/31 08:46:13;;;;;;;4.17;2.10;;;;;;;22.23;59.99;99697.88;1719194;82;21223;-83
2022/08/31 08:48:41;;;;;;;3.95;2.83;;;;;;;22.29;59.89;99700.69;1719092;82;21035;-82
2022/08/31 08:51:15;;;;;;;7.42;3.55;;;;;;;22.35;59.80;99702.10;1715039;82;21038;-76
2022/08/31 08:53:47;;;;;;;7.03;4.03;;;;;;;22.44;59.53;99697.42;1692165;83;21264;-75
2022/08/31 08:56:24;;;;;;;3.95;3.17;;;;;;;22.48;58.93;99692.89;1716994;81;21631;-81
2022/08/31 08:58:50;;;;;;;3.80;2.70;;;;;;;22.46;57.92;99706.66;1716180;82;20993;-83
2022/08/31 09:01:25;;;;;;;6.10;3.45;;;;;;;22.39;57.96;99705.02;1712537;82;21106;-84
2022/08/31 09:04:33;;;;;;;8.00;3.62;;;;;;;22.32;58.52;99698.66;1711796;82;20997;-82
2022/08/31 09:07:37;;;;;;;4.83;2.80;;;;;;;22.29;59.04;99693.84;1689380;84;21131;-84
2022/08/31 09:10:19;;;;;;;7.03;3.22;;;;;;;22.33;59.04;99681.09;1709751;83;21012;-80
2022/08/31 09:13:14;;;;;;;6.92;3.08;;;;;;;22.41;58.75;99674.76;1704121;82;21028;-78
2022/08/31 09:16:04;;;;;;;5.65;4.08;;;;;;;22.52;58.81;99690.28;1717711;82;21098;-77
2022/08/31 09:18:57;;;;;;;10.18;3.67;;;;;;;22.62;58.58;99691.30;1709842;82;21067;-78
2022/08/31 09:21:35;;;;;;;8.65;3.62;;;;;;;22.64;57.74;99700.57;1713430;83;21395;-81
2022/08/31 09:24:07;;;;;;;4.37;3.77;;;;;;;22.57;58.34;99684.05;1715574;82;20964;-80
2022/08/31 09:27:18;;;;;;;5.40;3.63;;;;;;;22.59;58.60;99689.19;1714564;82;21512;-79
2022/08/31 09:29:58;;;;;;;5.00;3.90;;;;;;;22.62;58.67;99689.92;1717474;83;20897;-80
2022/08/31 09:32:30;;;;;;;4.42;3.83;;;;;;;22.67;58.53;99690.30;1687125;85;20994;-79
2022/08/31 09:35:03;;;;;;;6.37;3.55;;;;;;;22.70;58.53;99685.52;1713099;83;21078;-80
2022/08/31 09:37:51;;;;;;;3.95;2.92;;;;;;;22.72;58.80;99699.75;1715324;82;20912;-80
2022/08/31 09:40:18;;;;;;;8.00;3.67;;;;;;;22.74;59.06;99681.00;1685882;83;21043;-78
2022/08/31 09:42:50;;;;;;;3.65;3.30;;;;;;;22.76;59.42;99707.55;1696114;83;21078;-82
2022/08/31 09:45:28;;;;;;;5.08;3.80;;;;;;;22.78;58.88;99691.58;1672581;83;21092;-80
2022/08/31 09:47:51;;;;;;;11.05;5.20;;;;;;;22.81;58.83;99695.02;1733869;81;21790;-78
2022/08/31 09:50:44;;;;;;;4.30;3.90;;;;;;;22.88;58.90;99673.34;1714124;82;21063;-78
2022/08/31 09:56:23;;;;;;;6.80;4.17;;;;;;;23.01;57.51;99681.92;1698836;83;20985;-79
2022/08/31 09:59:01;;;;;;;3.70;3.20;;;;;;;23.04;57.61;99684.80;1719789;83;21136;-67
2022/08/31 10:01:42;;;;;;;4.05;3.65;;;;;;;23.01;56.50;99685.47;1740832;80;21033;-68
2022/08/31 10:04:22;;;;;;;5.28;4.03;;;;;;;22.98;57.19;99691.59;1736220;82;21021;-66
2022/08/31 10:07:15;;;;;;;11.35;9.03;;;;;;;22.94;57.75;99706.31;1730716;82;21016;-67
2022/08/31 10:10:04;;;;;;;8.23;6.70;;;;;;;22.89;58.33;99692.78;1739835;81;21029;-67
2022/08/31 10:13:06;;;;;;;15.48;12.80;;;;;;;22.83;58.63;99682.56;1716914;81;21072;-67
2022/08/31 10:15:57;;;;;;;18.80;13.80;;;;;;;22.84;58.17;99681.44;1693138;83;21001;-67
2022/08/31 10:18:54;;;;;;;18.07;15.38;;;;;;;22.89;58.17;99675.77;1726464;82;21073;-69
2022/08/31 10:21:53;;;;;;;12.68;8.83;;;;;;;22.99;57.73;99691.84;1733819;82;21491;-69
2022/08/31 10:24:45;;;;;;;11.30;7.83;;;;;;;23.13;57.01;99701.20;1721394;82;21533;-68
2022/08/31 10:27:20;;;;;;;6.08;4.83;;;;;;;23.25;55.80;99704.60;1727659;82;21048;-69
2022/08/31 10:29:54;;;;;;;4.70;3.00;;;;;;;23.28;55.58;99700.61;1717621;82;21806;-72
2022/08/31 10:32:27;;;;;;;3.12;2.47;;;;;;;23.29;55.27;99691.25;1735724;82;21498;-71
2022/08/31 10:35:13;;;;;;;3.33;2.80;;;;;;;23.30;54.94;99678.33;1735645;82;21668;-70
2022/08/31 10:38:07;;;;;;;5.87;2.72;;;;;;;23.31;55.16;99694.45;1714794;82;21022;-70
2022/08/31 10:40:42;;;;;;;2.72;2.52;;;;;;;23.33;55.13;99678.45;1709057;82;21017;-70
2022/08/31 10:43:22;;;;;;;3.40;2.77;;;;;;;23.37;54.53;99678.58;1732017;81;22290;-69
2022/08/31 10:45:52;;;;;;;4.17;2.33;;;;;;;23.44;54.61;99667.88;1709130;83;21015;-70
2022/08/31 10:48:23;;;;;;;3.77;3.37;;;;;;;23.49;54.93;99703.97;1709394;82;21027;-67
2022/08/31 10:51:21;;;;;;;6.50;3.30;;;;;;;23.48;55.33;99692.75;1730225;82;21470;-75
2022/08/31 10:54:03;;;;;;;4.78;3.08;;;;;;;23.38;55.96;99674.14;1706590;83;21052;-70
2022/08/31 10:57:04;;;;;;;5.55;3.37;;;;;;;23.27;56.28;99692.70;1684845;83;21194;-71
2022/08/31 11:00:02;;;;;;;6.50;4.58;;;;;;;23.19;56.31;99679.86;1685026;83;21051;-70
2022/08/31 11:02:57;;;;;;;7.00;4.10;;;;;;;23.10;56.54;99666.20;1678460;81;21070;-68
2022/08/31 11:05:46;;;;;;;4.15;3.75;;;;;;;23.11;55.86;99671.93;1739717;81;21082;-69
2022/08/31 11:08:47;;;;;;;5.55;4.83;;;;;;;23.24;54.81;99673.61;1704378;83;20957;-77
2022/08/31 11:11:12;;;;;;;7.05;4.70;;;;;;;23.36;54.46;99665.99;1729540;82;21142;-78
2022/08/31 11:13:55;;;;;;;5.45;3.83;;;;;;;23.47;55.21;99656.25;1706568;83;21040;-69
2022/08/31 11:17:07;;;;;;;5.80;4.85;;;;;;;23.59;54.71;99659.63;1733263;81;20975;-73
2022/08/31 11:20:01;;;;;;;7.25;3.80;;;;;;;23.74;53.58;99662.53;1713057;83;21042;-73
2022/08/31 11:22:45;;;;;;;6.50;3.95;;;;;;;23.90;51.89;99666.27;1690131;84;21632;-75
2022/08/31 11:25:46;;;;;;;6.58;5.20;;;;;;;24.05;52.06;99659.89;1700060;84;21592;-77
2022/08/31 11:28:33;;;;;;;10.35;5.60;;;;;;;24.11;52.27;99643.42;1699742;84;20947;-77
2022/08/31 11:31:22;;;;;;;11.83;5.80;;;;;;;24.06;52.61;99640.33;1699880;84;21007;-71
2022/08/31 11:34:01;;;;;;;7.75;5.15;;;;;;;23.96;53.13;99653.12;1694947;84;21027;-72
2022/08/31 11:36:46;;;;;;;12.07;6.25;;;;;;;23.96;53.31;99658.61;1698743;83;21039;-75
2022/08/31 11:39:19;;;;;;;8.88;6.33;;;;;;;23.98;52.77;99666.53;1702117;83;21530;-72
2022/08/31 11:41:49;;;;;;;8.43;6.37;;;;;;;23.97;52.43;99667.66;1729227;83;21472;-70
2022/08/31 11:44:32;;;;;;;8.15;6.50;;;;;;;23.87;52.54;99673.02;1709778;83;21310;-74
2022/08/31 11:47:33;;;;;;;7.92;6.47;;;;;;;23.69;52.77;99650.38;1706645;81;20956;-71
2022/08/31 11:50:04;;;;;;;10.10;6.53;;;;;;;23.57;52.73;99642.67;1735255;81;21536;-70
2022/08/31 11:52:47;;;;;;;11.60;6.87;;;;;;;23.58;53.02;99641.55;1736048;82;21261;-71
2022/08/31 11:55:47;;;;;;;11.18;7.78;;;;;;;23.59;53.23;99650.02;1735697;81;20977;-68
2022/08/31 11:58:24;;;;;;;13.75;8.85;;;;;;;23.69;53.20;99642.74;1736071;80;20924;-70
2022/08/31 12:01:08;;;;;;;12.20;9.00;;;;;;;23.83;53.15;99644.05;1735639;82;21065;-68
2022/08/31 12:03:50;;;;;;;15.68;10.05;;;;;;;23.88;52.87;99656.17;1735657;81;20996;-70
2022/08/31 12:06:32;;;;;;;11.70;8.90;;;;;;;23.93;52.14;99642.81;1701674;84;21163;-78
2022/08/31 12:09:41;;;;;;;11.00;7.97;;;;;;;23.90;51.46;99649.78;1723957;83;21014;-69
2022/08/31 12:12:33;;;;;;;10.85;8.08;;;;;;;23.80;51.29;99639.22;1729451;83;21057;-67